createdAt,value
2022-10-16T00:00:59.422Z,13.17
2022-10-16T00:03:29.555Z,13.13
2022-10-16T00:06:17.261Z,13.04
2022-10-16T00:08:44.898Z,12.99
2022-10-16T00:11:18.973Z,12.93
2022-10-16T00:13:49.390Z,12.90
2022-10-16T00:16:16.918Z,12.60
2022-10-16T00:18:44.012Z,12.74
2022-10-16T00:21:14.641Z,12.54
2022-10-16T00:23:44.165Z,12.49
2022-10-16T00:26:14.290Z,12.52
2022-10-16T00:28:41.458Z,12.49
2022-10-16T00:31:12.950Z,12.45
2022-10-16T00:33:41.223Z,12.60
2022-10-16T00:36:10.945Z,12.53
2022-10-16T00:38:38.991Z,12.45
2022-10-16T00:41:08.923Z,12.27
2022-10-16T00:43:43.135Z,12.32
2022-10-16T00:46:42.982Z,12.39
2022-10-16T00:49:15.853Z,12.35
2022-10-16T00:51:46.545Z,12.29
2022-10-16T00:54:21.360Z,12.32
2022-10-16T00:56:48.843Z,12.35
2022-10-16T00:59:20.336Z,12.25
2022-10-16T01:01:47.244Z,12.17
2022-10-16T01:04:14.205Z,12.22
2022-10-16T01:06:49.762Z,12.10
2022-10-16T01:09:32.762Z,12.16
2022-10-16T01:12:07.292Z,12.14
2022-10-16T01:14:54.355Z,12.20
2022-10-16T01:17:29.206Z,12.20
2022-10-16T01:20:11.105Z,12.09
2022-10-16T01:22:55.256Z,12.22
2022-10-16T01:25:50.431Z,12.24
2022-10-16T01:28:20.369Z,12.26
2022-10-16T01:30:48.628Z,12.28
2022-10-16T01:33:22.395Z,12.22
2022-10-16T01:35:56.071Z,12.14
2022-10-16T01:38:37.895Z,12.06
2022-10-16T01:41:16.086Z,11.97
2022-10-16T01:43:57.115Z,11.93
2022-10-16T01:46:25.474Z,12.01
2022-10-16T01:48:53.546Z,12.07
2022-10-16T01:51:21.929Z,12.01
2022-10-16T01:53:55.512Z,12.01
2022-10-16T01:56:24.694Z,11.97
2022-10-16T01:58:57.067Z,12.05
2022-10-16T02:01:27.935Z,12.10
2022-10-16T02:04:01.199Z,12.02
2022-10-16T02:06:28.138Z,12.02
2022-10-16T02:08:55.107Z,12.08
2022-10-16T02:11:22.156Z,12.03
2022-10-16T02:14:07.814Z,12.10
2022-10-16T02:16:46.503Z,12.13
2022-10-16T02:19:21.280Z,12.16
2022-10-16T02:22:01.238Z,12.10
2022-10-16T02:24:50.035Z,12.11
2022-10-16T02:27:22.677Z,12.15
2022-10-16T02:29:59.766Z,12.19
2022-10-16T02:32:32.228Z,12.19
2022-10-16T02:35:01.470Z,12.23
2022-10-16T02:37:29.556Z,12.20
2022-10-16T02:39:58.847Z,12.25
2022-10-16T02:42:43.898Z,12.26
2022-10-16T02:45:12.398Z,12.29
2022-10-16T02:47:39.389Z,12.24
2022-10-16T02:50:06.728Z,12.22
2022-10-16T02:52:33.502Z,12.18
2022-10-16T02:55:00.433Z,12.21
2022-10-16T02:57:27.791Z,12.22
2022-10-16T02:59:55.087Z,12.18
2022-10-16T03:02:22.256Z,12.15
2022-10-16T03:04:49.184Z,12.17
2022-10-16T03:07:16.211Z,12.17
2022-10-16T03:09:43.094Z,12.10
2022-10-16T03:12:09.913Z,12.15
2022-10-16T03:14:50.763Z,12.10
2022-10-16T03:17:18.074Z,12.10
2022-10-16T03:19:44.971Z,12.15
2022-10-16T03:22:12.075Z,12.06
2022-10-16T03:24:39.376Z,12.01
2022-10-16T03:27:06.953Z,11.98
2022-10-16T03:29:34.085Z,11.98
2022-10-16T03:32:01.599Z,11.95
2022-10-16T03:34:29.022Z,11.87
2022-10-16T03:36:56.174Z,11.84
2022-10-16T03:39:22.965Z,11.83
2022-10-16T03:41:49.754Z,11.80
2022-10-16T03:44:16.595Z,11.77
2022-10-16T03:46:43.613Z,11.72
2022-10-16T03:49:10.461Z,11.68
2022-10-16T03:51:37.390Z,11.66
2022-10-16T03:54:04.346Z,11.69
2022-10-16T03:56:31.161Z,11.66
2022-10-16T03:58:58.065Z,11.25
2022-10-16T04:01:25.082Z,11.40
2022-10-16T04:03:51.906Z,11.43
2022-10-16T04:06:18.928Z,11.40
2022-10-16T04:08:46.056Z,11.36
2022-10-16T04:11:13.129Z,11.32
2022-10-16T04:13:40.822Z,11.36
2022-10-16T04:16:07.691Z,11.37
2022-10-16T04:18:34.574Z,11.35
2022-10-16T04:21:06.045Z,11.30
2022-10-16T04:23:33.567Z,11.25
2022-10-16T04:26:00.969Z,11.22
2022-10-16T04:28:27.944Z,11.29
2022-10-16T04:30:55.006Z,11.23
2022-10-16T04:33:21.876Z,11.26
2022-10-16T04:35:48.651Z,11.27
2022-10-16T04:38:15.607Z,11.28
2022-10-16T04:40:43.552Z,11.04
2022-10-16T04:43:10.746Z,11.17
2022-10-16T04:45:37.754Z,11.20
2022-10-16T04:48:04.951Z,11.08
2022-10-16T04:50:31.772Z,11.19
2022-10-16T04:52:58.604Z,10.92
2022-10-16T04:55:25.462Z,11.06
2022-10-16T04:57:52.299Z,11.12
2022-10-16T05:00:19.551Z,11.12
2022-10-16T05:02:46.365Z,11.19
2022-10-16T05:05:13.245Z,11.26
2022-10-16T05:07:40.074Z,11.76
2022-10-16T05:10:07.232Z,12.20
2022-10-16T05:12:34.182Z,12.63
2022-10-16T05:15:01.170Z,13.20
2022-10-16T05:17:28.584Z,13.60
2022-10-16T05:19:55.871Z,14.02
2022-10-16T05:22:22.983Z,14.31
2022-10-16T05:24:49.752Z,14.75
2022-10-16T05:27:20.228Z,15.24
2022-10-16T05:29:48.466Z,15.68
2022-10-16T05:32:17.107Z,16.14
2022-10-16T05:34:44.535Z,16.36
2022-10-16T05:37:12.755Z,16.69
2022-10-16T05:39:39.948Z,17.26
2022-10-16T05:42:07.326Z,17.48
2022-10-16T05:47:01.107Z,18.66
2022-10-16T05:49:28.095Z,18.72
2022-10-16T05:51:55.018Z,19.36
2022-10-16T05:54:21.848Z,19.48
2022-10-16T05:56:48.629Z,19.78
2022-10-16T05:59:15.446Z,20.49
2022-10-16T06:01:42.330Z,20.73
2022-10-16T06:06:38.237Z,21.75
2022-10-16T06:09:05.777Z,21.94
2022-10-16T06:11:33.987Z,22.43
2022-10-16T06:14:08.117Z,22.84
2022-10-16T06:16:36.555Z,22.77
2022-10-16T06:19:07.322Z,23.27
2022-10-16T06:21:34.556Z,23.27
2022-10-16T06:24:01.347Z,23.82
2022-10-16T06:26:46.915Z,23.87
2022-10-16T06:29:13.697Z,24.50
2022-10-16T06:31:40.668Z,24.41
2022-10-16T06:34:11.759Z,24.19
2022-10-16T06:36:39.527Z,24.03
2022-10-16T06:39:08.398Z,24.92
2022-10-16T06:41:35.621Z,25.36
2022-10-16T06:44:02.983Z,26.27
2022-10-16T06:46:29.866Z,25.33
2022-10-16T06:48:56.835Z,25.43
2022-10-16T06:51:25.309Z,25.07
2022-10-16T06:54:02.950Z,25.31
2022-10-16T06:56:32.474Z,24.94
2022-10-16T06:59:00.089Z,25.28
2022-10-16T07:01:28.976Z,25.34
2022-10-16T07:03:55.934Z,24.97
2022-10-16T07:06:25.368Z,25.12
2022-10-16T07:08:52.841Z,24.97
2022-10-16T07:11:23.024Z,25.52
2022-10-16T07:13:55.090Z,25.21
2022-10-16T07:16:29.198Z,24.93
2022-10-16T07:19:00.323Z,25.07
2022-10-16T07:21:30.308Z,24.85
2022-10-16T07:24:02.513Z,24.57
2022-10-16T07:26:32.202Z,24.26
2022-10-16T07:28:59.592Z,24.43
2022-10-16T07:31:26.926Z,24.88
2022-10-16T07:33:54.899Z,24.64
2022-10-16T07:36:22.894Z,24.71
2022-10-16T07:38:51.080Z,24.71
2022-10-16T07:41:21.177Z,24.76
2022-10-16T07:43:53.178Z,24.17
2022-10-16T07:46:22.677Z,24.52
2022-10-16T07:48:49.883Z,24.89
2022-10-16T07:51:19.982Z,24.81
2022-10-16T07:53:47.975Z,24.87
2022-10-16T07:56:15.607Z,24.55
2022-10-16T07:58:42.582Z,24.48
2022-10-16T08:01:11.540Z,24.77
2022-10-16T08:03:38.608Z,23.89
2022-10-16T08:06:06.427Z,23.71
2022-10-16T08:08:51.906Z,23.90
2022-10-16T08:11:18.995Z,22.77
2022-10-16T08:13:45.827Z,23.21
2022-10-16T08:16:12.767Z,22.32
2022-10-16T08:18:41.343Z,22.19
2022-10-16T08:21:16.828Z,21.18
2022-10-16T08:23:45.950Z,21.07
2022-10-16T08:28:58.597Z,20.15
2022-10-16T08:31:25.836Z,20.43
2022-10-16T08:33:53.684Z,20.40
2022-10-16T08:36:20.944Z,20.79
2022-10-16T08:38:51.722Z,20.44
2022-10-16T08:41:52.168Z,20.81
2022-10-16T08:44:46.027Z,20.57
2022-10-16T08:47:26.448Z,20.83
2022-10-16T08:50:03.017Z,20.51
2022-10-16T08:52:35.148Z,20.27
2022-10-16T08:55:03.206Z,20.58
2022-10-16T08:57:32.606Z,20.82
2022-10-16T09:00:06.596Z,21.23
2022-10-16T09:02:39.867Z,20.63
2022-10-16T09:05:37.577Z,20.86
2022-10-16T09:08:37.965Z,20.40
2022-10-16T09:11:10.517Z,20.56
2022-10-16T09:13:57.594Z,21.12
2022-10-16T09:16:58.561Z,21.23
2022-10-16T09:19:52.631Z,20.56
2022-10-16T09:22:22.247Z,20.10
2022-10-16T09:24:49.526Z,20.17
2022-10-16T09:27:16.717Z,20.72
2022-10-16T09:29:43.734Z,20.65
2022-10-16T09:32:19.257Z,21.22
2022-10-16T09:34:53.517Z,21.96
2022-10-16T09:37:23.765Z,21.26
2022-10-16T09:39:52.976Z,21.58
2022-10-16T09:42:32.486Z,20.42
2022-10-16T09:44:59.677Z,20.45
2022-10-16T09:47:31.575Z,20.16
2022-10-16T09:50:07.161Z,20.84
2022-10-16T09:52:34.480Z,21.23
2022-10-16T09:55:16.468Z,21.56
2022-10-16T09:57:56.318Z,21.61
2022-10-16T10:00:25.492Z,21.76
2022-10-16T10:05:28.568Z,22.16
2022-10-16T10:08:07.426Z,22.19
2022-10-16T10:10:41.096Z,21.75
2022-10-16T10:13:36.988Z,21.55
2022-10-16T10:16:03.939Z,21.77
2022-10-16T10:18:32.987Z,22.20
2022-10-16T10:21:02.209Z,21.97
2022-10-16T10:23:31.503Z,21.80
2022-10-16T10:26:21.898Z,21.46
2022-10-16T10:29:22.294Z,22.03
2022-10-16T10:31:58.181Z,22.28
2022-10-16T10:34:39.130Z,21.85
2022-10-16T10:37:22.075Z,22.00
2022-10-16T10:40:15.912Z,21.72
2022-10-16T10:42:56.122Z,22.24
2022-10-16T10:45:37.174Z,22.42
2022-10-16T10:48:22.720Z,22.73
2022-10-16T10:51:11.554Z,22.89
2022-10-16T10:53:50.331Z,22.09
2022-10-16T10:56:45.901Z,22.82
2022-10-16T10:59:49.602Z,22.50
2022-10-16T11:02:39.334Z,22.12
2022-10-16T11:05:19.321Z,22.52
2022-10-16T11:08:10.011Z,22.47
2022-10-16T11:11:03.509Z,22.38
2022-10-16T11:13:50.925Z,22.54
2022-10-16T11:16:24.218Z,22.36
2022-10-16T11:18:59.750Z,22.22
2022-10-16T11:21:31.172Z,22.80
2022-10-16T11:24:05.586Z,23.02
2022-10-16T11:26:36.994Z,22.25
2022-10-16T11:29:10.129Z,22.31
2022-10-16T11:31:51.402Z,22.27
2022-10-16T11:34:40.114Z,22.16
2022-10-16T11:37:12.013Z,22.00
2022-10-16T11:39:43.954Z,22.22
2022-10-16T11:42:38.287Z,22.27
2022-10-16T11:45:08.169Z,22.54
2022-10-16T11:48:03.365Z,22.35
2022-10-16T11:50:42.684Z,22.20
2022-10-16T11:53:44.973Z,22.21
2022-10-16T11:56:20.472Z,21.90
2022-10-16T11:58:53.362Z,22.22
2022-10-16T12:01:39.923Z,22.05
2022-10-16T12:04:46.502Z,21.85
2022-10-16T12:07:19.207Z,21.98
2022-10-16T12:09:46.250Z,22.10
2022-10-16T12:12:31.677Z,21.90
2022-10-16T12:15:17.544Z,22.22
2022-10-16T12:17:49.598Z,22.15
2022-10-16T12:20:21.162Z,22.43
2022-10-16T12:22:56.935Z,22.31
2022-10-16T12:25:32.003Z,22.34
2022-10-16T12:28:21.701Z,22.48
2022-10-16T12:30:58.423Z,22.49
2022-10-16T12:33:31.279Z,22.53
2022-10-16T12:36:00.421Z,22.28
2022-10-16T12:38:33.389Z,22.19
2022-10-16T12:41:06.298Z,22.25
2022-10-16T12:43:33.018Z,22.18
2022-10-16T12:46:07.012Z,22.36
2022-10-16T12:48:48.252Z,22.51
2022-10-16T12:51:31.205Z,22.72
2022-10-16T12:54:06.210Z,22.63
2022-10-16T12:57:14.328Z,21.94
2022-10-16T12:59:50.229Z,22.17
2022-10-16T13:02:35.822Z,22.03
2022-10-16T13:05:05.395Z,22.18
2022-10-16T13:07:42.647Z,21.76
2022-10-16T13:10:57.315Z,21.69
2022-10-16T13:13:58.964Z,21.73
2022-10-16T13:16:40.550Z,21.57
2022-10-16T13:19:31.618Z,21.70
2022-10-16T13:22:17.222Z,21.69
2022-10-16T13:25:00.688Z,21.77
2022-10-16T13:27:33.588Z,21.39
2022-10-16T13:30:10.884Z,21.50
2022-10-16T13:32:37.886Z,21.55
2022-10-16T13:35:19.529Z,21.53
2022-10-16T13:37:46.424Z,21.36
2022-10-16T13:40:23.673Z,21.31
2022-10-16T13:42:52.293Z,21.09
2022-10-16T13:45:24.232Z,21.35
2022-10-16T13:47:51.132Z,20.97
2022-10-16T13:50:19.982Z,20.99
2022-10-16T13:52:46.822Z,21.05
2022-10-16T13:55:17.976Z,20.93
2022-10-16T13:57:45.599Z,20.93
2022-10-16T14:00:20.354Z,21.03
2022-10-16T14:02:54.484Z,20.74
2022-10-16T14:05:21.472Z,20.93
2022-10-16T14:07:52.225Z,20.93
2022-10-16T14:10:37.676Z,20.82
2022-10-16T14:13:07.802Z,20.86
2022-10-16T14:15:36.778Z,20.63
2022-10-16T14:18:04.711Z,20.66
2022-10-16T14:20:35.048Z,20.55
2022-10-16T14:23:03.516Z,20.57
2022-10-16T14:25:32.927Z,20.64
2022-10-16T14:28:16.130Z,20.63
2022-10-16T14:30:57.472Z,20.64
2022-10-16T14:33:30.814Z,20.62
2022-10-16T14:36:05.242Z,20.36
2022-10-16T14:38:33.473Z,20.24
2022-10-16T14:41:01.626Z,20.18
2022-10-16T14:43:40.488Z,19.90
2022-10-16T14:46:19.442Z,20.14
2022-10-16T14:48:52.042Z,20.22
2022-10-16T14:51:20.559Z,20.12
2022-10-16T14:53:48.033Z,20.20
2022-10-16T14:56:21.718Z,20.11
2022-10-16T14:58:50.754Z,20.17
2022-10-16T15:01:17.654Z,20.11
2022-10-16T15:03:45.022Z,19.82
2022-10-16T15:06:16.374Z,19.86
2022-10-16T15:08:43.656Z,19.89
2022-10-16T15:11:19.315Z,19.85
2022-10-16T15:13:47.119Z,19.84
2022-10-16T15:16:16.969Z,19.77
2022-10-16T15:18:44.383Z,19.72
2022-10-16T15:21:32.275Z,19.62
2022-10-16T15:24:00.637Z,19.59
2022-10-16T15:26:29.515Z,19.48
2022-10-16T15:28:56.927Z,19.47
2022-10-16T15:31:24.483Z,19.40
2022-10-16T15:33:57.206Z,19.35
2022-10-16T15:36:32.053Z,19.31
2022-10-16T15:38:58.873Z,19.22
2022-10-16T15:41:25.993Z,19.16
2022-10-16T15:43:53.481Z,19.10
2022-10-16T15:46:22.465Z,19.05
2022-10-16T15:48:50.900Z,18.97
2022-10-16T15:51:19.191Z,18.93
2022-10-16T15:53:47.581Z,18.93
2022-10-16T15:56:15.415Z,18.88
2022-10-16T15:58:42.359Z,18.79
2022-10-16T16:01:11.103Z,18.71
2022-10-16T16:03:43.683Z,18.59
2022-10-16T16:06:13.751Z,18.56
2022-10-16T16:08:41.137Z,18.50
2022-10-16T16:11:10.497Z,18.42
2022-10-16T16:13:41.251Z,18.29
2022-10-16T16:16:16.465Z,18.13
2022-10-16T16:18:44.269Z,18.10
2022-10-16T16:21:12.750Z,17.88
2022-10-16T16:23:39.602Z,17.98
2022-10-16T16:26:15.343Z,17.96
2022-10-16T16:28:44.589Z,17.90
2022-10-16T16:31:11.542Z,17.87
2022-10-16T16:33:38.613Z,17.82
2022-10-16T16:36:11.476Z,17.69
2022-10-16T16:38:39.945Z,17.60
2022-10-16T16:41:17.593Z,17.61
2022-10-16T16:43:44.889Z,17.47
2022-10-16T16:46:12.693Z,17.40
2022-10-16T16:48:39.770Z,17.33
2022-10-16T16:51:08.147Z,17.02
2022-10-16T16:53:36.595Z,16.99
2022-10-16T16:56:07.285Z,16.81
2022-10-16T16:58:34.809Z,16.80
2022-10-16T17:01:28.724Z,16.74
2022-10-16T17:03:53.112Z,16.79
2022-10-16T17:06:22.178Z,16.72
2022-10-16T17:08:49.927Z,16.56
2022-10-16T17:11:24.459Z,16.67
2022-10-16T17:13:56.461Z,16.56
2022-10-16T17:16:33.808Z,16.46
2022-10-16T17:19:01.600Z,16.56
2022-10-16T17:21:30.754Z,16.46
2022-10-16T17:23:58.005Z,16.65
2022-10-16T17:26:25.799Z,16.57
2022-10-16T17:28:58.225Z,16.38
2022-10-16T17:31:45.835Z,16.44
2022-10-16T17:34:13.486Z,16.40
2022-10-16T17:36:44.319Z,16.33
2022-10-16T17:39:13.206Z,16.28
2022-10-16T17:41:40.250Z,16.30
2022-10-16T17:44:08.326Z,16.18
2022-10-16T17:46:39.937Z,16.09
2022-10-16T17:49:07.995Z,16.13
2022-10-16T17:51:34.912Z,16.11
2022-10-16T17:54:02.360Z,16.01
2022-10-16T17:56:30.118Z,15.89
2022-10-16T17:59:02.021Z,15.73
2022-10-16T18:01:32.116Z,15.57
2022-10-16T18:04:12.528Z,15.51
2022-10-16T18:06:41.708Z,15.35
2022-10-16T18:09:09.637Z,15.30
2022-10-16T18:11:36.924Z,15.24
2022-10-16T18:14:04.706Z,15.16
2022-10-16T18:16:32.397Z,15.10
2022-10-16T18:18:59.595Z,15.06
2022-10-16T18:21:27.694Z,14.99
2022-10-16T18:23:54.981Z,14.86
2022-10-16T18:26:23.549Z,14.82
2022-10-16T18:28:55.836Z,14.77
2022-10-16T18:31:23.835Z,14.76
2022-10-16T18:33:51.562Z,14.70
2022-10-16T18:36:24.365Z,14.66
2022-10-16T18:38:51.989Z,14.64
2022-10-16T18:41:19.505Z,14.52
2022-10-16T18:43:46.656Z,14.57
2022-10-16T18:46:17.687Z,14.47
2022-10-16T18:48:45.267Z,14.43
2022-10-16T18:51:34.296Z,14.29
2022-10-16T18:54:13.006Z,14.26
2022-10-16T18:56:40.555Z,14.15
2022-10-16T18:59:09.085Z,14.16
2022-10-16T19:01:38.855Z,14.19
2022-10-16T19:04:12.858Z,14.13
2022-10-16T19:06:45.261Z,14.05
2022-10-16T19:09:14.044Z,14.05
2022-10-16T19:11:42.282Z,14.00
2022-10-16T19:14:10.982Z,14.03
2022-10-16T19:16:38.845Z,14.02
2022-10-16T19:19:07.953Z,13.95
2022-10-16T19:21:39.838Z,13.89
2022-10-16T19:24:07.064Z,13.77
2022-10-16T19:26:36.826Z,13.71
2022-10-16T19:29:07.356Z,13.70
2022-10-16T19:31:34.635Z,13.61
2022-10-16T19:34:03.595Z,13.57
2022-10-16T19:36:35.534Z,13.59
2022-10-16T19:39:06.930Z,13.60
2022-10-16T19:41:36.147Z,13.48
2022-10-16T19:44:04.856Z,13.41
2022-10-16T19:46:33.395Z,13.43
2022-10-16T19:49:02.971Z,13.34
2022-10-16T19:51:31.024Z,13.29
2022-10-16T19:54:00.335Z,13.20
2022-10-16T19:56:28.976Z,13.21
2022-10-16T19:58:57.920Z,13.13
2022-10-16T20:01:27.349Z,13.15
2022-10-16T20:03:54.336Z,12.99
2022-10-16T20:06:21.474Z,12.98
2022-10-16T20:08:51.778Z,12.89
2022-10-16T20:11:28.637Z,12.82
2022-10-16T20:13:55.954Z,12.84
2022-10-16T20:16:22.875Z,12.79
2022-10-16T20:18:51.189Z,12.77
2022-10-16T20:21:21.027Z,12.67
2022-10-16T20:23:49.154Z,12.69
2022-10-16T20:26:16.987Z,12.62
2022-10-16T20:28:44.828Z,12.55
2022-10-16T20:31:22.585Z,12.56
2022-10-16T20:33:50.937Z,12.47
2022-10-16T20:36:18.557Z,12.37
2022-10-16T20:38:45.807Z,12.28
2022-10-16T20:41:14.078Z,12.21
2022-10-16T20:46:13.740Z,12.14
2022-10-16T20:48:44.417Z,12.08
2022-10-16T20:51:24.707Z,12.04
2022-10-16T20:54:03.227Z,12.03
2022-10-16T20:56:32.246Z,11.93
2022-10-16T20:58:59.392Z,12.00
2022-10-16T21:01:28.505Z,11.91
2022-10-16T21:03:58.188Z,11.90
2022-10-16T21:06:28.731Z,11.87
2022-10-16T21:08:55.635Z,11.83
2022-10-16T21:11:25.430Z,11.84
2022-10-16T21:13:54.438Z,11.87
2022-10-16T21:16:21.857Z,11.85
2022-10-16T21:18:49.137Z,11.82
2022-10-16T21:21:20.742Z,11.73
2022-10-16T21:23:49.295Z,11.70
2022-10-16T21:26:18.310Z,11.59
2022-10-16T21:28:45.487Z,11.68
2022-10-16T21:31:22.067Z,11.59
2022-10-16T21:33:49.127Z,11.51
2022-10-16T21:36:30.918Z,11.48
2022-10-16T21:39:02.215Z,11.56
2022-10-16T21:41:29.929Z,11.54
2022-10-16T21:43:57.698Z,11.51
2022-10-16T21:46:27.401Z,11.52
2022-10-16T21:48:58.899Z,11.41
2022-10-16T21:51:27.799Z,11.40
2022-10-16T21:53:55.384Z,11.47
2022-10-16T21:56:23.317Z,11.51
2022-10-16T21:58:50.533Z,11.45
2022-10-16T22:01:20.664Z,11.50
2022-10-16T22:03:47.996Z,11.37
2022-10-16T22:06:17.158Z,11.40
2022-10-16T22:08:47.730Z,11.36
2022-10-16T22:11:17.766Z,11.37
2022-10-16T22:13:46.740Z,11.29
2022-10-16T22:16:13.654Z,11.34
2022-10-16T22:18:40.933Z,11.35
2022-10-16T22:21:09.023Z,11.25
2022-10-16T22:23:36.861Z,11.23
2022-10-16T22:26:09.582Z,11.18
2022-10-16T22:28:37.839Z,11.05
2022-10-16T22:36:07.661Z,11.05
2022-10-16T22:38:36.434Z,10.82
2022-10-16T22:41:08.464Z,10.79
2022-10-16T22:43:37.362Z,10.75
2022-10-16T22:46:09.682Z,10.73
2022-10-16T22:48:36.943Z,10.86
2022-10-16T22:51:05.570Z,10.87
2022-10-16T22:53:33.301Z,10.86
2022-10-16T22:56:00.261Z,10.75
2022-10-16T22:58:27.358Z,10.68
2022-10-16T23:00:54.502Z,10.78
2022-10-16T23:03:22.421Z,10.83
2022-10-16T23:05:49.486Z,10.92
2022-10-16T23:08:16.529Z,10.92
2022-10-16T23:10:46.005Z,10.93
2022-10-16T23:13:13.729Z,10.85
2022-10-16T23:15:41.901Z,10.88
2022-10-16T23:18:09.323Z,10.69
2022-10-16T23:20:39.641Z,10.64
2022-10-16T23:23:06.696Z,10.61
2022-10-16T23:25:33.719Z,10.65
2022-10-16T23:28:00.535Z,10.61
2022-10-16T23:30:27.434Z,10.49
2022-10-16T23:32:54.273Z,10.50
2022-10-16T23:35:21.119Z,10.50
2022-10-16T23:37:48.283Z,10.46
2022-10-16T23:40:15.177Z,10.37
2022-10-16T23:42:41.970Z,10.30
2022-10-16T23:45:09.149Z,10.28
2022-10-16T23:47:36.029Z,10.39
2022-10-16T23:50:02.954Z,10.42
2022-10-16T23:52:29.890Z,10.28
2022-10-16T23:54:56.723Z,10.31
2022-10-16T23:57:23.566Z,10.27
2022-10-16T23:59:50.507Z,10.26
